createdAt,value
2018-03-14T00:00:36.016Z,4.83
2018-03-14T00:01:35.992Z,4.83
2018-03-14T00:02:35.962Z,4.90
2018-03-14T00:03:35.930Z,4.93
2018-03-14T00:04:35.915Z,4.86
2018-03-14T00:05:35.868Z,4.84
2018-03-14T00:06:35.844Z,4.86
2018-03-14T00:07:35.810Z,4.80
2018-03-14T00:08:35.778Z,4.86
2018-03-14T00:09:35.749Z,4.79
2018-03-14T00:10:35.719Z,4.87
2018-03-14T00:11:35.685Z,4.91
2018-03-14T00:12:35.654Z,4.86
2018-03-14T00:13:35.633Z,4.83
2018-03-14T00:14:35.596Z,4.83
2018-03-14T00:15:35.568Z,4.87
2018-03-14T00:16:35.544Z,4.79
2018-03-14T00:17:35.520Z,4.90
2018-03-14T00:18:35.489Z,4.79
2018-03-14T00:19:35.457Z,4.83
2018-03-14T00:20:35.420Z,4.83
2018-03-14T00:21:35.388Z,4.80
2018-03-14T00:22:35.361Z,4.83
2018-03-14T00:23:35.335Z,4.79
2018-03-14T00:24:35.300Z,4.79
2018-03-14T00:25:35.271Z,4.87
2018-03-14T00:26:35.246Z,4.72
2018-03-14T00:27:35.209Z,4.80
2018-03-14T00:28:35.178Z,4.87
2018-03-14T00:29:35.150Z,4.87
2018-03-14T00:30:35.125Z,4.79
2018-03-14T00:31:35.099Z,4.77
2018-03-14T00:32:35.067Z,4.77
2018-03-14T00:33:35.035Z,4.77
2018-03-14T00:34:35.000Z,4.84
2018-03-14T00:35:34.975Z,4.84
2018-03-14T00:36:34.943Z,4.87
2018-03-14T00:37:34.911Z,4.87
2018-03-14T00:38:34.892Z,4.86
2018-03-14T00:39:34.852Z,4.84
2018-03-14T00:40:34.822Z,4.83
2018-03-14T00:41:34.799Z,4.88
2018-03-14T00:42:34.767Z,4.87
2018-03-14T00:43:34.736Z,4.83
2018-03-14T00:44:34.701Z,4.74
2018-03-14T00:45:34.681Z,4.87
2018-03-14T00:46:34.651Z,4.75
2018-03-14T00:47:34.620Z,4.75
2018-03-14T00:48:34.587Z,4.71
2018-03-14T00:49:34.557Z,4.72
2018-03-14T00:50:34.531Z,4.72
2018-03-14T00:51:34.498Z,4.72
2018-03-14T00:52:34.464Z,4.74
2018-03-14T00:53:34.434Z,4.75
2018-03-14T00:54:34.412Z,4.75
2018-03-14T00:55:34.381Z,4.80
2018-03-14T00:56:34.346Z,4.80
2018-03-14T00:57:34.327Z,4.74
2018-03-14T00:58:34.285Z,4.75
2018-03-14T00:59:34.257Z,4.77
2018-03-14T01:00:34.227Z,4.75
2018-03-14T01:01:34.200Z,4.79
2018-03-14T01:02:34.164Z,4.69
2018-03-14T01:03:34.135Z,4.71
2018-03-14T01:04:34.112Z,4.72
2018-03-14T01:05:34.082Z,4.67
2018-03-14T01:06:34.056Z,4.67
2018-03-14T01:07:34.032Z,4.67
2018-03-14T01:08:33.995Z,4.65
2018-03-14T01:09:33.961Z,4.71
2018-03-14T01:10:33.932Z,4.72
2018-03-14T01:11:33.903Z,4.67
2018-03-14T01:12:33.908Z,4.67
2018-03-14T01:13:33.840Z,4.69
2018-03-14T01:14:33.807Z,4.64
2018-03-14T01:15:33.791Z,4.72
2018-03-14T01:16:33.750Z,4.74
2018-03-14T01:17:33.718Z,4.71
2018-03-14T01:18:33.689Z,4.71
2018-03-14T01:19:33.677Z,4.69
2018-03-14T01:20:33.634Z,4.69
2018-03-14T01:21:33.605Z,4.69
2018-03-14T01:22:33.570Z,4.67
2018-03-14T01:23:33.539Z,4.65
2018-03-14T01:24:33.514Z,4.65
2018-03-14T01:25:33.479Z,4.65
2018-03-14T01:26:33.450Z,4.69
2018-03-14T01:27:33.427Z,4.71
2018-03-14T01:28:33.394Z,4.71
2018-03-14T01:29:33.362Z,4.74
2018-03-14T01:30:33.332Z,4.72
2018-03-14T01:31:33.301Z,4.68
2018-03-14T01:32:33.270Z,4.69
2018-03-14T01:33:33.243Z,4.72
2018-03-14T01:34:33.215Z,4.67
2018-03-14T01:35:33.179Z,4.64
2018-03-14T01:36:33.151Z,4.68
2018-03-14T01:37:33.120Z,4.65
2018-03-14T01:38:33.092Z,4.67
2018-03-14T01:39:33.059Z,4.67
2018-03-14T01:40:33.028Z,4.69
2018-03-14T01:41:33.005Z,4.64
2018-03-14T01:42:32.975Z,4.65
2018-03-14T01:43:32.945Z,4.59
2018-03-14T01:44:32.912Z,4.64
2018-03-14T01:45:32.886Z,4.61
2018-03-14T01:46:32.850Z,4.64
2018-03-14T01:47:32.822Z,4.57
2018-03-14T01:48:32.793Z,4.64
2018-03-14T01:49:32.765Z,4.62
2018-03-14T01:50:32.733Z,4.57
2018-03-14T01:51:32.704Z,4.59
2018-03-14T01:52:32.670Z,4.61
2018-03-14T01:53:32.640Z,4.56
2018-03-14T01:54:32.609Z,4.61
2018-03-14T01:55:32.579Z,4.59
2018-03-14T01:56:32.550Z,4.56
2018-03-14T01:57:32.518Z,4.62
2018-03-14T01:58:32.496Z,4.62
2018-03-14T01:59:32.461Z,4.64
2018-03-14T02:00:32.432Z,4.62
2018-03-14T02:01:32.400Z,4.61
2018-03-14T02:02:32.373Z,4.62
2018-03-14T02:03:32.345Z,4.59
2018-03-14T02:04:32.310Z,4.65
2018-03-14T02:05:32.281Z,4.64
2018-03-14T02:06:32.250Z,4.61
2018-03-14T02:07:32.221Z,4.61
2018-03-14T02:08:32.194Z,4.61
2018-03-14T02:09:32.162Z,4.62
2018-03-14T02:10:32.133Z,4.64
2018-03-14T02:11:32.107Z,4.64
2018-03-14T02:12:32.076Z,4.65
2018-03-14T02:13:32.040Z,4.67
2018-03-14T02:14:32.020Z,4.61
2018-03-14T02:15:31.992Z,4.62
2018-03-14T02:16:31.959Z,4.54
2018-03-14T02:17:31.922Z,4.65
2018-03-14T02:18:31.893Z,4.53
2018-03-14T02:19:31.861Z,4.65
2018-03-14T02:20:31.837Z,4.54
2018-03-14T02:21:31.810Z,4.61
2018-03-14T02:22:31.778Z,4.56
2018-03-14T02:23:31.749Z,4.57
2018-03-14T02:24:31.718Z,4.51
2018-03-14T02:25:31.687Z,4.61
2018-03-14T02:26:31.659Z,4.59
2018-03-14T02:27:31.626Z,4.56
2018-03-14T02:28:31.593Z,4.56
2018-03-14T02:29:31.560Z,4.59
2018-03-14T02:30:31.539Z,4.56
2018-03-14T02:31:31.504Z,4.51
2018-03-14T02:32:31.477Z,4.57
2018-03-14T02:33:31.446Z,4.59
2018-03-14T02:34:31.413Z,4.56
2018-03-14T02:35:31.385Z,4.59
2018-03-14T02:36:31.352Z,4.56
2018-03-14T02:37:31.327Z,4.49
2018-03-14T02:38:31.298Z,4.47
2018-03-14T02:39:31.265Z,4.50
2018-03-14T02:40:31.230Z,4.50
2018-03-14T02:41:31.200Z,4.47
2018-03-14T02:42:31.174Z,4.56
2018-03-14T02:43:31.141Z,4.57
2018-03-14T02:44:31.114Z,4.49
2018-03-14T02:45:31.086Z,4.54
2018-03-14T02:46:31.053Z,4.51
2018-03-14T02:47:31.026Z,4.56
2018-03-14T02:48:30.999Z,4.50
2018-03-14T02:49:30.964Z,4.43
2018-03-14T02:50:30.932Z,4.43
2018-03-14T02:51:30.914Z,4.44
2018-03-14T02:52:30.876Z,4.56
2018-03-14T02:53:30.852Z,4.50
2018-03-14T02:54:30.815Z,4.51
2018-03-14T02:55:30.781Z,4.47
2018-03-14T02:56:30.763Z,4.53
2018-03-14T02:57:30.730Z,4.54
2018-03-14T02:58:30.694Z,4.49
2018-03-14T02:59:30.666Z,4.47
2018-03-14T03:00:31.033Z,4.46
2018-03-14T03:01:30.606Z,4.46
2018-03-14T03:02:30.576Z,4.53
2018-03-14T03:03:30.541Z,4.57
2018-03-14T03:04:30.511Z,4.53
2018-03-14T03:05:30.479Z,4.46
2018-03-14T03:06:30.454Z,4.53
2018-03-14T03:07:30.426Z,4.47
2018-03-14T03:08:30.391Z,4.51
2018-03-14T03:09:30.361Z,4.53
2018-03-14T03:10:30.337Z,4.51
2018-03-14T03:11:30.307Z,4.59
2018-03-14T03:12:30.278Z,4.53
2018-03-14T03:13:30.243Z,4.54
2018-03-14T03:14:30.222Z,4.53
2018-03-14T03:15:30.185Z,4.43
2018-03-14T03:16:30.155Z,4.44
2018-03-14T03:17:30.129Z,4.47
2018-03-14T03:18:30.102Z,4.44
2018-03-14T03:19:30.068Z,4.42
2018-03-14T03:20:30.035Z,4.42
2018-03-14T03:21:30.003Z,4.43
2018-03-14T03:22:29.975Z,4.42
2018-03-14T03:23:29.947Z,4.38
2018-03-14T03:24:29.910Z,4.46
2018-03-14T03:25:29.879Z,4.39
2018-03-14T03:26:29.858Z,4.39
2018-03-14T03:27:29.824Z,4.39
2018-03-14T03:28:29.790Z,4.39
2018-03-14T03:29:29.764Z,4.46
2018-03-14T03:30:29.733Z,4.29
2018-03-14T03:31:29.720Z,4.34
2018-03-14T03:32:29.678Z,4.38
2018-03-14T03:33:29.646Z,4.34
2018-03-14T03:34:29.614Z,4.36
2018-03-14T03:35:29.584Z,4.29
2018-03-14T03:36:29.549Z,4.39
2018-03-14T03:37:29.524Z,4.31
2018-03-14T03:38:29.490Z,4.32
2018-03-14T03:39:29.462Z,4.28
2018-03-14T03:40:29.430Z,4.25
2018-03-14T03:41:29.406Z,4.25
2018-03-14T03:42:29.367Z,4.28
2018-03-14T03:43:29.342Z,4.29
2018-03-14T03:44:29.312Z,4.18
2018-03-14T03:45:29.278Z,4.20
2018-03-14T03:46:29.250Z,4.24
2018-03-14T03:47:29.223Z,4.31
2018-03-14T03:48:29.187Z,4.28
2018-03-14T03:49:29.165Z,4.20
2018-03-14T03:50:29.128Z,4.21
2018-03-14T03:51:29.102Z,4.17
2018-03-14T03:52:29.070Z,4.29
2018-03-14T03:53:29.290Z,4.26
2018-03-14T03:54:29.009Z,4.18
2018-03-14T03:55:28.982Z,4.18
2018-03-14T03:56:28.952Z,4.24
2018-03-14T03:57:28.918Z,4.18
2018-03-14T03:58:28.890Z,4.18
2018-03-14T03:59:28.893Z,4.24
2018-03-14T04:00:28.829Z,4.17
2018-03-14T04:01:28.795Z,4.20
2018-03-14T04:02:28.789Z,4.14
2018-03-14T04:03:28.739Z,4.17
2018-03-14T04:04:28.707Z,4.16
2018-03-14T04:05:28.727Z,4.21
2018-03-14T04:06:28.655Z,4.20
2018-03-14T04:07:28.611Z,4.02
2018-03-14T04:08:28.589Z,4.11
2018-03-14T04:09:28.557Z,4.13
2018-03-14T04:10:28.523Z,4.08
2018-03-14T04:11:28.796Z,4.10
2018-03-14T04:12:28.460Z,4.10
2018-03-14T04:13:28.436Z,4.14
2018-03-14T04:14:28.401Z,4.07
2018-03-14T04:15:28.376Z,4.16
2018-03-14T04:16:28.342Z,4.08
2018-03-14T04:17:28.312Z,4.13
2018-03-14T04:18:28.282Z,4.10
2018-03-14T04:19:28.255Z,4.14
2018-03-14T04:20:28.223Z,4.16
2018-03-14T04:21:28.188Z,4.11
2018-03-14T04:22:28.163Z,4.13
2018-03-14T04:23:28.135Z,4.04
2018-03-14T04:24:28.102Z,4.14
2018-03-14T04:25:28.066Z,4.04
2018-03-14T04:26:28.039Z,4.17
2018-03-14T04:27:28.014Z,4.06
2018-03-14T04:28:28.280Z,4.11
2018-03-14T04:29:27.950Z,4.17
2018-03-14T04:30:27.920Z,4.11
2018-03-14T04:31:27.932Z,4.14
2018-03-14T04:32:27.861Z,4.06
2018-03-14T04:33:27.832Z,4.07
2018-03-14T04:34:27.801Z,4.10
2018-03-14T04:35:27.769Z,4.07
2018-03-14T04:36:27.738Z,4.13
2018-03-14T04:37:27.711Z,4.06
2018-03-14T04:38:27.683Z,4.13
2018-03-14T04:39:27.664Z,4.10
2018-03-14T04:40:27.621Z,4.13
2018-03-14T04:41:27.591Z,4.13
2018-03-14T04:42:27.558Z,4.08
2018-03-14T04:43:27.529Z,4.10
2018-03-14T04:44:27.497Z,4.10
2018-03-14T04:45:27.470Z,4.08
2018-03-14T04:46:27.445Z,4.13
2018-03-14T04:47:27.409Z,4.02
2018-03-14T04:48:27.370Z,4.06
2018-03-14T04:49:27.339Z,4.06
2018-03-14T04:50:27.315Z,4.10
2018-03-14T04:51:27.285Z,4.00
2018-03-14T04:52:28.052Z,4.00
2018-03-14T04:53:27.221Z,3.99
2018-03-14T04:54:27.190Z,3.96
2018-03-14T04:55:27.165Z,3.99
2018-03-14T04:56:27.136Z,4.02
2018-03-14T04:57:27.103Z,4.02
2018-03-14T04:58:27.069Z,4.00
2018-03-14T04:59:27.038Z,4.07
2018-03-14T05:00:27.014Z,4.04
2018-03-14T05:01:27.008Z,4.02
2018-03-14T05:02:26.955Z,4.02
2018-03-14T05:03:26.915Z,4.04
2018-03-14T05:04:26.886Z,4.02
2018-03-14T05:05:26.858Z,3.96
2018-03-14T05:06:26.833Z,3.96
2018-03-14T05:07:26.806Z,3.90
2018-03-14T05:08:26.767Z,3.95
2018-03-14T05:09:26.733Z,3.96
2018-03-14T05:10:26.704Z,3.88
2018-03-14T05:11:26.677Z,3.96
2018-03-14T05:12:26.649Z,3.93
2018-03-14T05:13:26.613Z,3.88
2018-03-14T05:14:26.593Z,3.98
2018-03-14T05:15:26.552Z,3.93
2018-03-14T05:16:26.527Z,3.92
2018-03-14T05:17:26.530Z,3.89
2018-03-14T05:18:26.462Z,3.93
2018-03-14T05:19:26.430Z,3.86
2018-03-14T05:20:26.403Z,3.93
2018-03-14T05:21:26.381Z,3.82
2018-03-14T05:22:26.339Z,3.89
2018-03-14T05:23:26.326Z,3.88
2018-03-14T05:24:26.285Z,3.93
2018-03-14T05:25:26.250Z,3.95
2018-03-14T05:26:26.218Z,3.89
2018-03-14T05:27:26.192Z,3.93
2018-03-14T05:28:26.157Z,3.78
2018-03-14T05:29:26.129Z,3.86
2018-03-14T05:30:26.101Z,3.88
2018-03-14T05:31:26.072Z,3.84
2018-03-14T05:32:26.042Z,3.81
2018-03-14T05:33:26.013Z,3.77
2018-03-14T05:34:25.976Z,3.84
2018-03-14T05:35:25.953Z,3.86
2018-03-14T05:36:25.916Z,3.93
2018-03-14T05:37:25.883Z,3.92
2018-03-14T05:38:25.850Z,3.81
2018-03-14T05:39:25.826Z,3.90
2018-03-14T05:40:25.788Z,3.96
2018-03-14T05:41:25.763Z,3.89
2018-03-14T05:42:25.732Z,3.92
2018-03-14T05:43:25.702Z,3.92
2018-03-14T05:44:25.667Z,3.95
2018-03-14T05:45:25.644Z,3.81
2018-03-14T05:46:25.614Z,3.88
2018-03-14T05:47:25.576Z,3.81
2018-03-14T05:48:25.556Z,3.78
2018-03-14T05:49:25.519Z,3.78
2018-03-14T05:50:25.487Z,3.74
2018-03-14T05:51:25.457Z,3.78
2018-03-14T05:52:25.431Z,3.71
2018-03-14T05:53:25.400Z,3.72
2018-03-14T05:54:25.366Z,3.77
2018-03-14T05:55:25.332Z,3.74
2018-03-14T05:56:25.313Z,3.77
2018-03-14T05:57:25.275Z,3.72
2018-03-14T05:58:25.244Z,3.82
2018-03-14T05:59:25.213Z,3.90
2018-03-14T06:00:25.180Z,3.90
2018-03-14T06:01:25.152Z,3.82
2018-03-14T06:02:25.125Z,3.89
2018-03-14T06:03:25.095Z,3.84
2018-03-14T06:04:25.069Z,3.75
2018-03-14T06:05:25.088Z,3.90
2018-03-14T06:06:25.006Z,3.82
2018-03-14T06:07:24.978Z,3.78
2018-03-14T06:08:24.946Z,3.92
2018-03-14T06:09:24.908Z,3.81
2018-03-14T06:10:24.878Z,3.96
2018-03-14T06:11:24.852Z,3.95
2018-03-14T06:12:24.828Z,3.75
2018-03-14T06:13:24.815Z,3.74
2018-03-14T06:14:24.758Z,3.88
2018-03-14T06:15:24.727Z,3.93
2018-03-14T06:16:24.742Z,3.90
2018-03-14T06:17:24.666Z,3.93
2018-03-14T06:18:24.637Z,3.95
2018-03-14T06:19:24.608Z,4.00
2018-03-14T06:20:24.574Z,4.04
2018-03-14T06:21:24.542Z,3.84
2018-03-14T06:22:24.515Z,3.84
2018-03-14T06:23:24.488Z,3.86
2018-03-14T06:24:24.456Z,3.95
2018-03-14T06:25:24.420Z,3.89
2018-03-14T06:26:24.400Z,3.82
2018-03-14T06:27:24.365Z,3.89
2018-03-14T06:28:24.331Z,3.92
2018-03-14T06:29:24.312Z,4.00
2018-03-14T06:30:24.275Z,3.93
2018-03-14T06:31:24.244Z,3.82
2018-03-14T06:32:24.212Z,3.84
2018-03-14T06:33:24.178Z,3.82
2018-03-14T06:34:24.153Z,3.82
2018-03-14T06:35:24.126Z,3.80
2018-03-14T06:36:24.160Z,3.78
2018-03-14T06:37:24.063Z,3.89
2018-03-14T06:38:24.035Z,3.95
2018-03-14T06:39:24.007Z,4.02
2018-03-14T06:40:23.969Z,4.11
2018-03-14T06:41:23.945Z,4.21
2018-03-14T06:42:23.914Z,4.11
2018-03-14T06:43:24.138Z,4.02
2018-03-14T06:44:23.856Z,3.96
2018-03-14T06:45:23.829Z,4.07
2018-03-14T06:46:23.791Z,4.14
2018-03-14T06:47:23.760Z,3.99
2018-03-14T06:48:23.733Z,4.08
2018-03-14T06:49:23.705Z,3.98
2018-03-14T06:50:23.672Z,3.95
2018-03-14T06:51:23.648Z,4.02
2018-03-14T06:52:23.612Z,3.98
2018-03-14T06:53:23.585Z,4.00
2018-03-14T06:54:23.557Z,3.98
2018-03-14T06:55:23.523Z,4.07
2018-03-14T06:56:23.493Z,4.14
2018-03-14T06:57:23.463Z,4.20
2018-03-14T06:58:23.434Z,4.10
2018-03-14T06:59:23.401Z,4.17
2018-03-14T07:00:23.370Z,4.17
2018-03-14T07:01:23.354Z,4.18
2018-03-14T07:02:23.321Z,4.21
2018-03-14T07:03:23.286Z,4.10
2018-03-14T07:04:23.255Z,4.11
2018-03-14T07:05:23.225Z,4.14
2018-03-14T07:06:23.194Z,4.04
2018-03-14T07:07:23.165Z,4.13
2018-03-14T07:08:23.140Z,4.10
2018-03-14T07:09:23.104Z,4.10
2018-03-14T07:10:23.079Z,4.20
2018-03-14T07:11:23.050Z,4.16
2018-03-14T07:12:23.022Z,4.25
2018-03-14T07:13:22.990Z,4.26
2018-03-14T07:14:22.965Z,4.06
2018-03-14T07:15:22.942Z,4.10
2018-03-14T07:16:22.904Z,4.17
2018-03-14T07:17:22.924Z,4.24
2018-03-14T07:18:22.841Z,4.13
2018-03-14T07:19:22.810Z,4.17
2018-03-14T07:20:22.781Z,4.29
2018-03-14T07:21:22.753Z,4.17
2018-03-14T07:22:22.722Z,4.13
2018-03-14T07:23:22.699Z,4.18
2018-03-14T07:24:22.661Z,4.25
2018-03-14T07:25:22.642Z,4.25
2018-03-14T07:26:22.604Z,4.26
2018-03-14T07:27:22.583Z,4.24
2018-03-14T07:28:22.552Z,4.20
2018-03-14T07:29:22.518Z,4.18
2018-03-14T07:30:22.737Z,4.17
2018-03-14T07:31:22.460Z,4.18
2018-03-14T07:32:22.426Z,4.28
2018-03-14T07:33:22.398Z,4.26
2018-03-14T07:34:22.373Z,4.34
2018-03-14T07:35:22.345Z,4.24
2018-03-14T07:36:22.375Z,4.25
2018-03-14T07:37:22.286Z,4.28
2018-03-14T07:38:22.255Z,4.47
2018-03-14T07:39:22.222Z,4.39
2018-03-14T07:40:22.197Z,4.31
2018-03-14T07:41:22.162Z,4.42
2018-03-14T07:42:22.140Z,4.18
2018-03-14T07:43:22.116Z,4.29
2018-03-14T07:44:22.082Z,4.28
2018-03-14T07:45:22.049Z,4.42
2018-03-14T07:46:22.017Z,4.44
2018-03-14T07:47:21.992Z,4.44
2018-03-14T07:48:21.964Z,4.59
2018-03-14T07:49:21.931Z,4.65
2018-03-14T07:50:21.904Z,4.75
2018-03-14T07:51:21.873Z,4.74
2018-03-14T07:52:21.849Z,4.77
2018-03-14T07:53:22.067Z,4.91
2018-03-14T07:54:21.799Z,4.86
2018-03-14T07:55:21.757Z,4.67
2018-03-14T07:56:21.733Z,4.69
2018-03-14T07:57:21.707Z,4.71
2018-03-14T07:58:21.676Z,4.83
2018-03-14T07:59:21.652Z,4.86
2018-03-14T08:00:21.617Z,4.64
2018-03-14T08:01:21.589Z,5.04
2018-03-14T08:02:21.560Z,5.05
2018-03-14T08:03:21.530Z,5.08
2018-03-14T08:04:21.508Z,4.80
2018-03-14T08:05:21.471Z,4.67
2018-03-14T08:06:21.451Z,4.74
2018-03-14T08:07:21.420Z,4.71
2018-03-14T08:08:21.386Z,4.74
2018-03-14T08:09:21.382Z,4.69
2018-03-14T08:10:21.334Z,4.90
2018-03-14T08:11:21.312Z,5.15
2018-03-14T08:12:21.282Z,5.19
2018-03-14T08:13:21.262Z,5.30
2018-03-14T08:14:21.223Z,5.23
2018-03-14T08:15:21.191Z,4.93
2018-03-14T08:16:21.170Z,5.19
2018-03-14T08:17:21.136Z,5.08
2018-03-14T08:18:21.106Z,4.99
2018-03-14T08:19:21.089Z,5.05
2018-03-14T08:20:21.085Z,5.06
2018-03-14T08:21:21.039Z,4.97
2018-03-14T08:22:20.995Z,5.09
2018-03-14T08:23:20.976Z,5.08
2018-03-14T08:24:20.945Z,5.41
2018-03-14T08:25:20.915Z,5.51
2018-03-14T08:26:20.890Z,5.62
2018-03-14T08:27:20.861Z,5.90
2018-03-14T08:28:20.830Z,5.98
2018-03-14T08:29:20.804Z,5.70
2018-03-14T08:30:20.778Z,5.55
2018-03-14T08:31:20.749Z,5.08
2018-03-14T08:32:20.725Z,5.14
2018-03-14T08:33:20.691Z,5.29
2018-03-14T08:34:20.695Z,5.51
2018-03-14T08:35:20.643Z,6.05
2018-03-14T08:36:20.613Z,6.08
2018-03-14T08:37:20.585Z,5.81
2018-03-14T08:38:20.564Z,6.01
2018-03-14T08:39:20.530Z,6.57
2018-03-14T08:40:20.519Z,6.69
2018-03-14T08:41:20.482Z,6.35
2018-03-14T08:42:20.454Z,6.36
2018-03-14T08:43:20.445Z,6.57
2018-03-14T08:44:20.395Z,6.54
2018-03-14T08:45:20.719Z,6.63
2018-03-14T08:46:20.346Z,6.63
2018-03-14T08:47:20.325Z,6.60
2018-03-14T08:48:20.287Z,6.75
2018-03-14T08:49:20.263Z,7.00
2018-03-14T08:50:20.291Z,6.75
2018-03-14T08:51:20.473Z,6.53
2018-03-14T08:52:20.196Z,6.63
2018-03-14T08:53:20.159Z,6.17
2018-03-14T08:54:20.176Z,6.10
2018-03-14T08:55:20.115Z,6.39
2018-03-14T08:56:20.085Z,6.50
2018-03-14T08:57:20.061Z,6.72
2018-03-14T08:58:20.030Z,6.36
2018-03-14T08:59:20.009Z,6.36
2018-03-14T09:00:19.981Z,6.35
2018-03-14T09:01:19.987Z,5.69
2018-03-14T09:02:19.942Z,5.40
2018-03-14T09:03:19.909Z,5.59
2018-03-14T09:04:19.879Z,5.93
2018-03-14T09:05:19.855Z,5.95
2018-03-14T09:06:19.828Z,6.01
2018-03-14T09:07:19.799Z,5.74
2018-03-14T09:08:19.776Z,5.98
2018-03-14T09:09:19.744Z,6.10
2018-03-14T09:10:19.724Z,6.10
2018-03-14T09:11:19.705Z,5.70
2018-03-14T09:12:19.677Z,5.63
2018-03-14T09:13:19.649Z,5.40
2018-03-14T09:14:19.616Z,5.59
2018-03-14T09:15:19.597Z,5.90
2018-03-14T09:16:19.576Z,6.11
2018-03-14T09:17:19.546Z,6.24
2018-03-14T09:18:19.519Z,6.38
2018-03-14T09:19:19.497Z,6.48
2018-03-14T09:20:19.460Z,6.10
2018-03-14T09:21:19.447Z,5.74
2018-03-14T09:22:19.412Z,5.88
2018-03-14T09:23:19.380Z,5.99
2018-03-14T09:24:19.356Z,6.05
2018-03-14T09:25:19.339Z,5.67
2018-03-14T09:26:19.313Z,6.14
2018-03-14T09:27:19.284Z,6.19
2018-03-14T09:28:19.246Z,6.38
2018-03-14T09:29:19.226Z,6.48
2018-03-14T09:30:19.199Z,5.98
2018-03-14T09:31:19.170Z,5.93
2018-03-14T09:32:19.150Z,5.63
2018-03-14T09:33:19.125Z,5.66
2018-03-14T09:34:19.090Z,5.70
2018-03-14T09:35:19.077Z,5.73
2018-03-14T09:36:19.039Z,5.84
2018-03-14T09:37:19.016Z,6.06
2018-03-14T09:38:18.992Z,6.06
2018-03-14T09:39:18.969Z,5.88
2018-03-14T09:40:18.940Z,6.01
2018-03-14T09:41:18.929Z,6.17
2018-03-14T09:42:18.917Z,6.28
2018-03-14T09:43:18.857Z,6.64
2018-03-14T09:44:19.143Z,6.73
2018-03-14T09:45:18.837Z,6.63
2018-03-14T09:46:18.782Z,6.40
2018-03-14T09:47:18.801Z,6.03
2018-03-14T09:48:18.729Z,6.25
2018-03-14T09:49:18.704Z,6.87
2018-03-14T09:50:18.688Z,7.00
2018-03-14T09:51:18.651Z,7.12
2018-03-14T09:52:18.635Z,7.07
2018-03-14T09:53:18.607Z,6.97
2018-03-14T09:54:18.573Z,6.69
2018-03-14T09:55:18.553Z,6.42
2018-03-14T09:56:18.521Z,6.51
2018-03-14T09:57:18.502Z,6.01
2018-03-14T09:58:18.473Z,5.95
2018-03-14T09:59:18.452Z,5.75
2018-03-14T10:00:18.423Z,5.67
2018-03-14T10:01:18.402Z,5.62
2018-03-14T10:02:18.373Z,5.65
2018-03-14T10:03:18.340Z,5.51
2018-03-14T10:04:18.317Z,5.60
2018-03-14T10:05:18.291Z,5.73
2018-03-14T10:06:18.262Z,5.65
2018-03-14T10:07:18.490Z,5.73
2018-03-14T10:08:18.208Z,5.77
2018-03-14T10:09:18.190Z,5.73
2018-03-14T10:10:18.161Z,5.65
2018-03-14T10:11:18.132Z,5.67
2018-03-14T10:12:18.102Z,5.70
2018-03-14T10:13:18.085Z,5.55
2018-03-14T10:14:18.056Z,5.65
2018-03-14T10:15:18.029Z,5.55
2018-03-14T10:16:17.996Z,5.58
2018-03-14T10:17:17.974Z,5.62
2018-03-14T10:18:17.947Z,5.70
2018-03-14T10:19:17.965Z,5.69
2018-03-14T10:20:17.887Z,5.62
2018-03-14T10:21:17.869Z,5.62
2018-03-14T10:22:17.898Z,5.73
2018-03-14T10:23:17.841Z,5.75
2018-03-14T10:24:17.785Z,5.58
2018-03-14T10:25:17.810Z,5.58
2018-03-14T10:26:17.719Z,5.35
2018-03-14T10:27:17.696Z,5.20
2018-03-14T10:28:17.673Z,5.33
2018-03-14T10:29:17.637Z,5.32
2018-03-14T10:30:17.616Z,5.37
2018-03-14T10:31:17.884Z,5.33
2018-03-14T10:32:17.557Z,5.23
2018-03-14T10:33:17.530Z,5.33
2018-03-14T10:34:17.505Z,5.40
2018-03-14T10:35:17.504Z,5.42
2018-03-14T10:36:17.446Z,5.45
2018-03-14T10:37:17.424Z,5.24
2018-03-14T10:38:17.388Z,5.29
2018-03-14T10:39:17.363Z,5.22
2018-03-14T10:40:17.336Z,5.04
2018-03-14T10:41:17.306Z,5.19
2018-03-14T10:42:17.275Z,5.24
2018-03-14T10:43:17.245Z,5.14
2018-03-14T10:44:17.222Z,5.22
2018-03-14T10:45:17.189Z,5.32
2018-03-14T10:46:17.167Z,5.40
2018-03-14T10:47:17.139Z,5.24
2018-03-14T10:48:17.116Z,5.20
2018-03-14T10:49:17.131Z,5.02
2018-03-14T10:50:17.054Z,5.12
2018-03-14T10:51:17.027Z,5.22
2018-03-14T10:52:17.000Z,5.23
2018-03-14T10:53:16.965Z,4.97
2018-03-14T10:54:16.941Z,5.01
2018-03-14T10:55:16.911Z,4.72
2018-03-14T10:56:16.883Z,4.93
2018-03-14T10:57:16.853Z,4.84
2018-03-14T10:58:16.830Z,4.87
2018-03-14T10:59:16.799Z,4.87
2018-03-14T11:00:16.768Z,4.93
2018-03-14T11:01:16.737Z,4.93
2018-03-14T11:02:16.714Z,4.90
2018-03-14T11:03:16.683Z,4.91
2018-03-14T11:04:16.656Z,5.02
2018-03-14T11:05:16.623Z,5.05
2018-03-14T11:06:16.597Z,5.15
2018-03-14T11:07:16.568Z,4.97
2018-03-14T11:08:16.539Z,5.01
2018-03-14T11:09:16.511Z,4.86
2018-03-14T11:10:16.485Z,4.97
2018-03-14T11:11:16.807Z,5.05
2018-03-14T11:12:16.424Z,5.14
2018-03-14T11:13:16.398Z,5.09
2018-03-14T11:14:16.374Z,4.99
2018-03-14T11:15:16.365Z,5.08
2018-03-14T11:16:16.309Z,5.29
2018-03-14T11:17:16.533Z,5.06
2018-03-14T11:18:16.255Z,5.11
2018-03-14T11:19:16.226Z,4.99
2018-03-14T11:20:16.214Z,4.91
2018-03-14T11:21:16.166Z,5.01
2018-03-14T11:22:16.142Z,5.06
2018-03-14T11:23:16.361Z,5.11
2018-03-14T11:24:16.083Z,5.11
2018-03-14T11:25:16.069Z,5.12
2018-03-14T11:26:16.027Z,5.11
2018-03-14T11:27:15.994Z,5.29
2018-03-14T11:28:15.971Z,5.23
2018-03-14T11:29:15.988Z,5.32
2018-03-14T11:30:15.916Z,5.11
2018-03-14T11:31:15.885Z,5.30
2018-03-14T11:32:15.860Z,5.32
2018-03-14T11:33:15.824Z,5.24
2018-03-14T11:34:15.810Z,5.24
2018-03-14T11:35:15.772Z,5.26
2018-03-14T11:36:15.745Z,5.37
2018-03-14T11:37:15.712Z,5.33
2018-03-14T11:38:15.679Z,5.11
2018-03-14T11:39:15.653Z,5.12
2018-03-14T11:40:15.623Z,5.17
2018-03-14T11:41:15.593Z,5.17
2018-03-14T11:42:15.570Z,5.08
2018-03-14T11:43:15.545Z,4.87
2018-03-14T11:44:15.517Z,4.84
2018-03-14T11:45:15.480Z,4.80
2018-03-14T11:46:15.459Z,4.83
2018-03-14T11:47:15.433Z,4.91
2018-03-14T11:48:15.427Z,4.83
2018-03-14T11:49:15.366Z,4.93
2018-03-14T11:50:15.343Z,4.88
2018-03-14T11:51:15.309Z,4.99
2018-03-14T11:52:15.630Z,4.93
2018-03-14T11:53:15.255Z,5.08
2018-03-14T11:54:15.233Z,5.23
2018-03-14T11:55:15.194Z,5.24
2018-03-14T11:56:15.171Z,5.26
2018-03-14T11:57:15.164Z,5.35
2018-03-14T11:58:15.109Z,5.33
2018-03-14T11:59:15.081Z,5.37
2018-03-14T12:00:15.051Z,5.26
2018-03-14T12:01:15.028Z,5.33
2018-03-14T12:02:15.002Z,5.41
2018-03-14T12:03:15.012Z,5.22
2018-03-14T12:04:14.942Z,4.97
2018-03-14T12:05:14.922Z,5.05
2018-03-14T12:06:14.882Z,5.19
2018-03-14T12:07:14.851Z,5.27
2018-03-14T12:08:14.828Z,5.32
2018-03-14T12:09:14.795Z,5.47
2018-03-14T12:10:14.787Z,5.56
2018-03-14T12:11:14.742Z,5.58
2018-03-14T12:12:14.713Z,5.42
2018-03-14T12:13:14.687Z,5.29
2018-03-14T12:14:14.657Z,5.32
2018-03-14T12:15:14.636Z,5.37
2018-03-14T12:16:14.862Z,5.32
2018-03-14T12:17:14.608Z,5.38
2018-03-14T12:18:14.548Z,5.23
2018-03-14T12:19:14.512Z,5.24
2018-03-14T12:20:14.490Z,5.45
2018-03-14T12:21:14.455Z,5.49
2018-03-14T12:22:14.454Z,5.49
2018-03-14T12:23:14.396Z,5.52
2018-03-14T12:24:14.366Z,5.65
2018-03-14T12:25:14.345Z,5.65
2018-03-14T12:26:14.348Z,5.66
2018-03-14T12:27:14.282Z,5.67
2018-03-14T12:28:14.254Z,5.73
2018-03-14T12:29:14.240Z,5.74
2018-03-14T12:30:14.213Z,5.78
2018-03-14T12:31:14.171Z,5.67
2018-03-14T12:32:14.139Z,5.60
2018-03-14T12:33:14.496Z,5.56
2018-03-14T12:34:14.092Z,5.56
2018-03-14T12:35:14.078Z,5.55
2018-03-14T12:36:14.027Z,5.42
2018-03-14T12:37:14.022Z,5.30
2018-03-14T12:38:13.974Z,5.37
2018-03-14T12:39:13.944Z,5.51
2018-03-14T12:40:13.921Z,5.40
2018-03-14T12:41:13.933Z,5.48
2018-03-14T12:42:13.868Z,5.44
2018-03-14T12:43:13.835Z,5.27
2018-03-14T12:44:13.801Z,5.22
2018-03-14T12:45:13.782Z,5.24
2018-03-14T12:46:13.748Z,5.30
2018-03-14T12:47:13.726Z,5.26
2018-03-14T12:48:13.693Z,5.08
2018-03-14T12:49:13.665Z,5.29
2018-03-14T12:50:13.731Z,5.23
2018-03-14T12:51:13.637Z,5.38
2018-03-14T12:52:13.583Z,5.41
2018-03-14T12:53:13.547Z,5.32
2018-03-14T12:54:13.527Z,5.41
2018-03-14T12:55:13.504Z,5.49
2018-03-14T12:56:13.470Z,5.59
2018-03-14T12:57:13.484Z,5.55
2018-03-14T12:58:13.432Z,5.58
2018-03-14T12:59:13.381Z,5.51
2018-03-14T13:00:13.356Z,5.52
2018-03-14T13:01:13.331Z,5.58
2018-03-14T13:02:13.302Z,5.60
2018-03-14T13:03:13.310Z,5.55
2018-03-14T13:04:13.237Z,5.60
2018-03-14T13:05:13.220Z,5.62
2018-03-14T13:06:13.189Z,5.59
2018-03-14T13:07:13.152Z,5.55
2018-03-14T13:08:13.130Z,5.56
2018-03-14T13:09:13.095Z,5.63
2018-03-14T13:10:13.088Z,5.44
2018-03-14T13:11:13.047Z,5.41
2018-03-14T13:12:13.013Z,5.17
2018-03-14T13:13:13.014Z,5.15
2018-03-14T13:14:12.958Z,5.20
2018-03-14T13:15:12.943Z,5.19
2018-03-14T13:16:12.901Z,5.27
2018-03-14T13:17:12.873Z,5.44
2018-03-14T13:18:12.841Z,5.45